Weather observations for the past three days for
Camp Springs / Andrews Air Force Base
Imperial (Metric)
Date Time (edt) Wind (mph) Vis. (mi.) Weather Sky Cond. Temperature (ºF) Relative Humidity Wind Chill (°F) Heat Index (°F) Pressure Precipitation (in)
Air Dwpt 6 hour altimeter (in) sea level (mb) 1 hr 3 hr 6 hr
Max. Min.
03 23:55 S 6 10.00 Fair CLR 48.7 30.4 49% 47 30 1016.6
03 21:55 S 6 10.00 Fair CLR 46.2 30.6 55% 44 29.98 1016.0
03 20:55 S 6 10.00 Fair CLR 50.9 29.1 43% 29.97 1015.6
03 19:55 W 7 10.00 Fair CLR 59.4 21.6 63.3 58.1 23% 29.96 1015.2
03 18:55 NW 8 10.00 Fair CLR 62.2 19.4 19% 29.95 1014.9
03 17:55 W 12 10.00 Fair CLR 63.1 20.1 19% 29.95 1014.9
03 16:55 W 15 G 21 10.00 Fair CLR 62.4 20.8 20% 29.95 1014.9
03 15:55 NW 16 G 21 10.00 Fair CLR 61.9 22.6 22% 29.97 1015.6
03 14:55 W 10 10.00 Fair CLR 60.8 22.8 23% 29.99 1016.3
03 13:55 N 13 G 24 10.00 Fair CLR 59.9 21.9 59.9 46.6 23% 30.01 1016.9
03 12:55 NW 12 G 21 10.00 Fair CLR 58.3 20.7 23% 30.02 1017.3
03 11:55 NW 15 G 21 10.00 Fair CLR 55.6 22.1 27% 30.03 1017.6
03 10:55 NW 18 G 24 10.00 A Few Clouds FEW065 52.9 19.8 27% 30.04 1018.0
03 09:55 NW 15 G 21 10.00 Fair CLR 51.4 22.6 32% 30.04 1018.0
03 08:55 NW 16 G 24 10.00 Fair CLR 49.3 24.8 38% 44 30.04 1018.0
03 07:55 NW 17 G 25 10.00 Fair CLR 46.9 27.7 50.5 43.3 47% 41 30.03 1017.6
03 06:55 NW 13 10.00 Fair CLR 45 27.9 51% 39 30 1016.6
03 05:55 NW 9 10.00 Fair CLR 43.7 29.5 57% 39 29.97 1015.6
03 04:55 NW 7 10.00 Fair CLR 44.4 30.2 58% 41 29.96 1015.3
03 03:55 NW 9 10.00 Fair CLR 45.3 29.7 54% 41 29.95 1014.9
03 02:55 NW 10 10.00 Fair CLR 46.6 29.8 52% 42 29.93 1014.2
03 01:55 NW 9 10.00 A Few Clouds FEW100 48.2 29.5 55.9 48.2 48% 45 29.93 1014.2
03 00:55 NW 10 10.00 Mostly Cloudy BKN100 49.5 30 47% 46 29.93 1014.2
02 23:55 NW 10 10.00 Partly Cloudy SCT100 50.9 29.8 44% 29.93 1014.2
02 22:55 NW 9 10.00 Mostly Cloudy BKN100 52.3 28 39% 29.93 1014.2
02 21:55 NW 6 10.00 Mostly Cloudy BKN100 53.1 29.3 40% 29.92 1013.9
02 20:55 N 7 10.00 A Few Clouds FEW180 53.6 29.3 39% 29.91 1013.6
02 19:55 N 9 10.00 Fair CLR 55.8 28.6 62.4 55.8 35% 29.88 1012.5
02 18:55 NW 9 10.00 Partly Cloudy SCT075 57.6 27.1 31% 29.88 1012.5
02 17:55 N 14 10.00 Overcast OVC075 61.5 26.2 26% 29.87 1012.2
02 16:55 N 9 10.00 Mostly Cloudy BKN070 59 29.1 32% 29.86 1011.8
02 15:55 N 5 10.00 A Few Clouds FEW070 59 27.7 30% 29.87 1012.2
02 14:55 NW 14 G 16 10.00 A Few Clouds FEW065 FEW200 60.1 28.6 30% 29.9 1013.2
02 13:55 NW 5 10.00 Partly Cloudy FEW055 SCT180 58.6 28.9 59.7 49.5 32% 29.93 1014.2
02 12:55 NW 10 10.00 Mostly Cloudy FEW130 SCT160 BKN200 56.7 31.3 38% 29.94 1014.5
02 11:55 N 7 10.00 Partly Cloudy FEW170 SCT200 55.9 32.5 41% 29.95 1014.9
02 10:55 N 6 10.00 Partly Cloudy SCT190 54.9 33.4 44% 29.96 1015.2
02 09:55 N 7 10.00 A Few Clouds FEW170 FEW200 51.6 35.6 55% 29.95 1014.9
02 08:55 N 10 10.00 A Few Clouds FEW200 50.5 36.7 59% 29.95 1014.9
02 07:55 N 10 10.00 Fair CLR 50.2 35.6 54.5 49.8 57% 29.95 1014.9
02 06:55 N 7 10.00 Fair CLR 50 36.3 60% 48 29.94 1014.5
02 05:55 NW 12 10.00 Fair CLR 50.5 37.2 60% 29.92 1013.8
02 04:55 NW 14 10.00 Fair CLR 52.3 39.4 62% 29.9 1013.1
02 03:55 N 10 10.00 A Few Clouds FEW065 52.2 41.9 68% 29.89 1012.8
02 02:55 NW 8 10.00 Mostly Cloudy BKN060 53.8 42.6 66% 29.9 1013.1
02 01:55 NW 9 10.00 Mostly Cloudy FEW065 BKN120 54 48.2 60.1 52.9 81% 29.89 1012.8 0.01 0.04
02 00:55 W 6 10.00 Drizzle BKN050 BKN075 53.2 48.9 85% 29.91 1013.5 0.03
01 23:55 S 9 10.00 Light Drizzle FEW080 FEW100 53.6 45.1 73% 29.89 1012.8
01 22:55 S 7 10.00 Mostly Cloudy SCT080 BKN100 54 42.1 64% 29.87 1012.2
01 21:55 SE 7 10.00 Fair CLR 54.1 41.4 62% 29.88 1012.5
01 20:55 SE 8 10.00 Partly Cloudy SCT120 57 39 51% 29.85 1011.5
01 19:55 SE 10 10.00 A Few Clouds FEW110 59.7 35.4 67.5 59.7 40% 29.84 1011.1
01 18:55 S 10 10.00 Fair CLR 64.8 33.4 31% 29.83 1010.8
01 17:55 S 13 10.00 Fair CLR 66.6 34.2 30% 29.84 1011.2
01 16:55 S 12 10.00 Fair CLR 66.9 31.8 27% 29.84 1011.1
01 15:55 SW 10 10.00 Fair CLR 66.4 31.5 27% 29.88 1012.5
01 14:55 SW 10 10.00 Fair CLR 66.6 35.1 31% 29.9 1013.2
01 13:55 S 6 10.00 Partly Cloudy SCT180 64.4 32.4 64.9 50.9 30% 29.91 1013.5
01 12:55 S 8 10.00 Partly Cloudy SCT180 63 32.7 32% 29.93 1014.2
01 11:55 NW 3 10.00 Fair CLR 60.3 31.1 33% 29.96 1015.2
01 10:55 SW 3 10.00 Fair CLR 58.5 30.9 35% 29.98 1015.9
01 09:55 N 3 10.00 Fair CLR 56.7 32 39% 29.99 1016.2
01 08:55 NW 6 10.00 Fair CLR 54 35.8 50% 30 1016.6
01 07:55 NW 7 10.00 Fair CLR 50.7 37.4 50.9 39.9 60% 29.99 1016.2
01 06:55 NW 5 10.00 Fair CLR 46.2 36.7 69% 45 29.98 1015.9
01 05:55 Calm 10.00 Fair CLR 40.1 34.2 79% 29.97 1015.6
01 04:55 NW 3 10.00 Fair CLR 45.7 35.1 67% 29.97 1015.5
01 03:55 NW 7 10.00 Fair CLR 46.6 35.4 65% 44 29.95 1014.9
01 02:55 NW 5 10.00 Fair CLR 47.3 34.5 61% 46 29.95 1014.8
01 01:55 NW 7 10.00 Fair CLR 48.6 34.5 59.9 48.4 58% 46 29.95 1014.9
Date Time (edt) Wind (mph) Vis. (mi.) Weather Sky Cond. Air Dwpt Max. Min. Relative Humidity Wind Chill (°F) Heat Index (°F) altimeter (in) sea level (mb) 1 hr 3 hr 6 hr
6 hour
Temperature (ºF) Pressure Precipitation (in)